sensor_id;sensor_type;location;lat;lon;timestamp;P1;durP1;ratioP1;P2;durP2;ratioP2
19903;SDS011;10114;50.970;4.962;2023-12-29T00:01:54;1.52;;;0.40;;
19903;SDS011;10114;50.970;4.962;2023-12-29T00:04:20;2.75;;;0.73;;
19903;SDS011;10114;50.970;4.962;2023-12-29T00:06:46;2.63;;;0.77;;
19903;SDS011;10114;50.970;4.962;2023-12-29T00:09:14;2.63;;;0.68;;
19903;SDS011;10114;50.970;4.962;2023-12-29T00:11:40;3.70;;;1.02;;
19903;SDS011;10114;50.970;4.962;2023-12-29T00:14:06;0.90;;;0.50;;
19903;SDS011;10114;50.970;4.962;2023-12-29T00:16:32;2.70;;;0.70;;
19903;SDS011;10114;50.970;4.962;2023-12-29T00:18:58;4.15;;;0.90;;
19903;SDS011;10114;50.970;4.962;2023-12-29T00:21:24;3.40;;;0.73;;
19903;SDS011;10114;50.970;4.962;2023-12-29T00:23:50;3.58;;;0.50;;
19903;SDS011;10114;50.970;4.962;2023-12-29T00:26:16;5.50;;;0.90;;
19903;SDS011;10114;50.970;4.962;2023-12-29T00:28:43;7.55;;;1.75;;
19903;SDS011;10114;50.970;4.962;2023-12-29T00:31:09;2.10;;;0.63;;
19903;SDS011;10114;50.970;4.962;2023-12-29T00:33:35;3.80;;;1.13;;
19903;SDS011;10114;50.970;4.962;2023-12-29T00:36:01;4.43;;;0.75;;
19903;SDS011;10114;50.970;4.962;2023-12-29T00:38:27;2.65;;;0.80;;
19903;SDS011;10114;50.970;4.962;2023-12-29T00:40:53;2.58;;;0.75;;
19903;SDS011;10114;50.970;4.962;2023-12-29T00:43:19;4.30;;;0.73;;
19903;SDS011;10114;50.970;4.962;2023-12-29T00:45:46;0.80;;;0.50;;
19903;SDS011;10114;50.970;4.962;2023-12-29T00:48:12;3.00;;;0.70;;
19903;SDS011;10114;50.970;4.962;2023-12-29T00:50:38;4.68;;;0.90;;
19903;SDS011;10114;50.970;4.962;2023-12-29T00:53:04;0.73;;;0.40;;
19903;SDS011;10114;50.970;4.962;2023-12-29T00:55:30;3.90;;;1.20;;
19903;SDS011;10114;50.970;4.962;2023-12-29T00:57:56;4.50;;;1.60;;
19903;SDS011;10114;50.970;4.962;2023-12-29T01:00:22;4.13;;;1.10;;
19903;SDS011;10114;50.970;4.962;2023-12-29T01:02:48;1.50;;;0.63;;
19903;SDS011;10114;50.970;4.962;2023-12-29T01:05:17;1.50;;;0.73;;
19903;SDS011;10114;50.970;4.962;2023-12-29T01:07:43;9.52;;;0.75;;
19903;SDS011;10114;50.970;4.962;2023-12-29T01:10:09;4.85;;;1.23;;
19903;SDS011;10114;50.970;4.962;2023-12-29T01:12:35;4.95;;;0.80;;
19903;SDS011;10114;50.970;4.962;2023-12-29T01:15:01;2.45;;;0.60;;
19903;SDS011;10114;50.970;4.962;2023-12-29T01:17:27;3.05;;;0.80;;
19903;SDS011;10114;50.970;4.962;2023-12-29T01:19:56;6.10;;;1.08;;
19903;SDS011;10114;50.970;4.962;2023-12-29T01:22:22;2.45;;;0.43;;
19903;SDS011;10114;50.970;4.962;2023-12-29T01:24:48;5.93;;;0.40;;
19903;SDS011;10114;50.970;4.962;2023-12-29T01:27:14;5.80;;;0.73;;
19903;SDS011;10114;50.970;4.962;2023-12-29T01:29:40;4.38;;;0.93;;
19903;SDS011;10114;50.970;4.962;2023-12-29T01:32:07;2.92;;;0.70;;
19903;SDS011;10114;50.970;4.962;2023-12-29T01:34:33;2.13;;;0.98;;
19903;SDS011;10114;50.970;4.962;2023-12-29T01:37:00;3.30;;;0.93;;
19903;SDS011;10114;50.970;4.962;2023-12-29T01:39:26;1.20;;;0.47;;
19903;SDS011;10114;50.970;4.962;2023-12-29T01:41:52;5.43;;;1.38;;
19903;SDS011;10114;50.970;4.962;2023-12-29T01:44:19;1.92;;;0.90;;
19903;SDS011;10114;50.970;4.962;2023-12-29T01:46:45;2.75;;;0.60;;
19903;SDS011;10114;50.970;4.962;2023-12-29T01:49:15;0.73;;;0.38;;
19903;SDS011;10114;50.970;4.962;2023-12-29T01:51:42;1.83;;;0.77;;
19903;SDS011;10114;50.970;4.962;2023-12-29T01:54:09;1.60;;;0.93;;
19903;SDS011;10114;50.970;4.962;2023-12-29T01:56:36;1.55;;;0.90;;
19903;SDS011;10114;50.970;4.962;2023-12-29T01:59:02;2.42;;;0.73;;
19903;SDS011;10114;50.970;4.962;2023-12-29T02:01:29;7.10;;;1.27;;
19903;SDS011;10114;50.970;4.962;2023-12-29T02:03:55;3.47;;;1.58;;
19903;SDS011;10114;50.970;4.962;2023-12-29T02:06:21;3.42;;;1.10;;
19903;SDS011;10114;50.970;4.962;2023-12-29T02:08:48;1.95;;;1.00;;
19903;SDS011;10114;50.970;4.962;2023-12-29T02:11:14;7.75;;;0.82;;
19903;SDS011;10114;50.970;4.962;2023-12-29T02:13:40;2.08;;;0.60;;
19903;SDS011;10114;50.970;4.962;2023-12-29T02:16:07;2.97;;;0.68;;
19903;SDS011;10114;50.970;4.962;2023-12-29T02:18:34;1.55;;;0.50;;
19903;SDS011;10114;50.970;4.962;2023-12-29T02:21:02;3.25;;;0.55;;
19903;SDS011;10114;50.970;4.962;2023-12-29T02:23:28;2.92;;;0.57;;
19903;SDS011;10114;50.970;4.962;2023-12-29T02:25:58;4.93;;;0.60;;
19903;SDS011;10114;50.970;4.962;2023-12-29T02:28:27;3.35;;;0.65;;
19903;SDS011;10114;50.970;4.962;2023-12-29T02:30:56;5.13;;;1.13;;
19903;SDS011;10114;50.970;4.962;2023-12-29T02:33:24;2.28;;;0.68;;
19903;SDS011;10114;50.970;4.962;2023-12-29T02:35:51;4.78;;;0.55;;
19903;SDS011;10114;50.970;4.962;2023-12-29T02:38:18;3.78;;;0.70;;
19903;SDS011;10114;50.970;4.962;2023-12-29T02:40:44;9.07;;;1.10;;
19903;SDS011;10114;50.970;4.962;2023-12-29T02:43:10;1.42;;;0.60;;
19903;SDS011;10114;50.970;4.962;2023-12-29T02:45:36;2.13;;;0.52;;
19903;SDS011;10114;50.970;4.962;2023-12-29T02:48:02;2.55;;;0.38;;
19903;SDS011;10114;50.970;4.962;2023-12-29T02:50:28;3.25;;;0.68;;
19903;SDS011;10114;50.970;4.962;2023-12-29T02:52:54;1.45;;;0.60;;
19903;SDS011;10114;50.970;4.962;2023-12-29T02:55:20;4.88;;;1.80;;
19903;SDS011;10114;50.970;4.962;2023-12-29T02:57:46;1.85;;;0.80;;
19903;SDS011;10114;50.970;4.962;2023-12-29T03:00:12;1.08;;;0.40;;
19903;SDS011;10114;50.970;4.962;2023-12-29T03:02:38;3.50;;;0.43;;
19903;SDS011;10114;50.970;4.962;2023-12-29T03:05:04;2.53;;;0.70;;
19903;SDS011;10114;50.970;4.962;2023-12-29T03:07:31;1.45;;;0.77;;
19903;SDS011;10114;50.970;4.962;2023-12-29T03:09:57;8.98;;;1.45;;
19903;SDS011;10114;50.970;4.962;2023-12-29T03:12:23;3.13;;;0.70;;
19903;SDS011;10114;50.970;4.962;2023-12-29T03:14:49;6.47;;;0.80;;
19903;SDS011;10114;50.970;4.962;2023-12-29T03:17:15;2.65;;;0.50;;
19903;SDS011;10114;50.970;4.962;2023-12-29T03:19:41;2.97;;;0.68;;
19903;SDS011;10114;50.970;4.962;2023-12-29T03:22:07;2.13;;;0.63;;
19903;SDS011;10114;50.970;4.962;2023-12-29T03:24:34;5.18;;;1.10;;
19903;SDS011;10114;50.970;4.962;2023-12-29T03:27:00;1.02;;;0.52;;
19903;SDS011;10114;50.970;4.962;2023-12-29T03:29:26;2.10;;;0.43;;
19903;SDS011;10114;50.970;4.962;2023-12-29T03:31:52;1.30;;;0.73;;
19903;SDS011;10114;50.970;4.962;2023-12-29T03:34:18;3.60;;;1.90;;
19903;SDS011;10114;50.970;4.962;2023-12-29T03:36:45;2.35;;;0.60;;
19903;SDS011;10114;50.970;4.962;2023-12-29T03:39:11;3.53;;;0.60;;
19903;SDS011;10114;50.970;4.962;2023-12-29T03:41:37;1.85;;;0.68;;
19903;SDS011;10114;50.970;4.962;2023-12-29T03:44:03;1.17;;;0.73;;
19903;SDS011;10114;50.970;4.962;2023-12-29T03:46:30;2.80;;;0.73;;
19903;SDS011;10114;50.970;4.962;2023-12-29T03:48:57;2.03;;;0.77;;
19903;SDS011;10114;50.970;4.962;2023-12-29T03:51:23;5.70;;;1.23;;
19903;SDS011;10114;50.970;4.962;2023-12-29T03:53:49;3.88;;;0.75;;
19903;SDS011;10114;50.970;4.962;2023-12-29T03:56:16;3.42;;;0.98;;
19903;SDS011;10114;50.970;4.962;2023-12-29T03:58:43;2.55;;;0.75;;
19903;SDS011;10114;50.970;4.962;2023-12-29T04:01:12;1.00;;;0.47;;
19903;SDS011;10114;50.970;4.962;2023-12-29T04:03:38;5.72;;;0.88;;
19903;SDS011;10114;50.970;4.962;2023-12-29T04:06:04;9.57;;;0.70;;
19903;SDS011;10114;50.970;4.962;2023-12-29T04:08:31;1.75;;;0.63;;
19903;SDS011;10114;50.970;4.962;2023-12-29T04:10:57;1.75;;;0.70;;
19903;SDS011;10114;50.970;4.962;2023-12-29T04:13:23;4.40;;;1.70;;
19903;SDS011;10114;50.970;4.962;2023-12-29T04:15:49;7.40;;;0.98;;
19903;SDS011;10114;50.970;4.962;2023-12-29T04:18:17;2.08;;;0.63;;
19903;SDS011;10114;50.970;4.962;2023-12-29T04:20:43;7.22;;;0.70;;
19903;SDS011;10114;50.970;4.962;2023-12-29T04:23:09;3.60;;;0.82;;
19903;SDS011;10114;50.970;4.962;2023-12-29T04:25:36;2.22;;;0.70;;
19903;SDS011;10114;50.970;4.962;2023-12-29T04:28:02;4.65;;;1.30;;
19903;SDS011;10114;50.970;4.962;2023-12-29T04:30:28;2.20;;;0.70;;
19903;SDS011;10114;50.970;4.962;2023-12-29T04:32:54;1.25;;;0.55;;
19903;SDS011;10114;50.970;4.962;2023-12-29T04:35:20;6.22;;;0.90;;
19903;SDS011;10114;50.970;4.962;2023-12-29T04:37:46;2.03;;;0.85;;
19903;SDS011;10114;50.970;4.962;2023-12-29T04:40:14;3.40;;;0.73;;
19903;SDS011;10114;50.970;4.962;2023-12-29T04:42:40;1.63;;;0.60;;
19903;SDS011;10114;50.970;4.962;2023-12-29T04:45:06;3.30;;;0.60;;
19903;SDS011;10114;50.970;4.962;2023-12-29T04:47:32;2.65;;;0.50;;
19903;SDS011;10114;50.970;4.962;2023-12-29T04:49:58;2.38;;;0.47;;
19903;SDS011;10114;50.970;4.962;2023-12-29T04:52:24;5.40;;;1.05;;
19903;SDS011;10114;50.970;4.962;2023-12-29T04:54:50;3.20;;;0.52;;
19903;SDS011;10114;50.970;4.962;2023-12-29T04:57:17;3.22;;;0.77;;
19903;SDS011;10114;50.970;4.962;2023-12-29T04:59:43;1.48;;;0.52;;
19903;SDS011;10114;50.970;4.962;2023-12-29T05:02:09;2.92;;;1.13;;
19903;SDS011;10114;50.970;4.962;2023-12-29T05:04:35;4.53;;;0.65;;
19903;SDS011;10114;50.970;4.962;2023-12-29T05:07:03;1.45;;;0.50;;
19903;SDS011;10114;50.970;4.962;2023-12-29T05:09:29;3.45;;;0.90;;
19903;SDS011;10114;50.970;4.962;2023-12-29T05:11:55;0.70;;;0.45;;
19903;SDS011;10114;50.970;4.962;2023-12-29T05:14:21;7.70;;;0.93;;
19903;SDS011;10114;50.970;4.962;2023-12-29T05:16:47;0.60;;;0.28;;
19903;SDS011;10114;50.970;4.962;2023-12-29T05:19:13;4.88;;;0.88;;
19903;SDS011;10114;50.970;4.962;2023-12-29T05:21:39;5.50;;;1.10;;
19903;SDS011;10114;50.970;4.962;2023-12-29T05:24:05;2.72;;;0.65;;
19903;SDS011;10114;50.970;4.962;2023-12-29T05:26:31;2.63;;;0.90;;
19903;SDS011;10114;50.970;4.962;2023-12-29T05:28:57;2.03;;;0.60;;
19903;SDS011;10114;50.970;4.962;2023-12-29T05:31:23;2.70;;;1.05;;
19903;SDS011;10114;50.970;4.962;2023-12-29T05:33:50;1.67;;;0.50;;
19903;SDS011;10114;50.970;4.962;2023-12-29T05:36:16;3.70;;;0.85;;
19903;SDS011;10114;50.970;4.962;2023-12-29T05:38:45;1.45;;;0.60;;
19903;SDS011;10114;50.970;4.962;2023-12-29T05:41:14;2.30;;;0.90;;
19903;SDS011;10114;50.970;4.962;2023-12-29T05:43:40;1.98;;;0.77;;
19903;SDS011;10114;50.970;4.962;2023-12-29T05:46:10;4.13;;;1.00;;
19903;SDS011;10114;50.970;4.962;2023-12-29T05:48:39;6.68;;;0.85;;
19903;SDS011;10114;50.970;4.962;2023-12-29T05:51:08;3.40;;;1.15;;
19903;SDS011;10114;50.970;4.962;2023-12-29T05:53:35;1.75;;;0.82;;
19903;SDS011;10114;50.970;4.962;2023-12-29T05:56:01;1.63;;;0.60;;
19903;SDS011;10114;50.970;4.962;2023-12-29T05:58:27;5.85;;;1.15;;
19903;SDS011;10114;50.970;4.962;2023-12-29T06:00:54;1.25;;;0.77;;
19903;SDS011;10114;50.970;4.962;2023-12-29T06:03:20;0.98;;;0.65;;
19903;SDS011;10114;50.970;4.962;2023-12-29T06:05:47;5.63;;;0.70;;
19903;SDS011;10114;50.970;4.962;2023-12-29T06:08:13;3.80;;;0.80;;
19903;SDS011;10114;50.970;4.962;2023-12-29T06:10:40;2.35;;;0.40;;
19903;SDS011;10114;50.970;4.962;2023-12-29T06:13:06;0.73;;;0.55;;
19903;SDS011;10114;50.970;4.962;2023-12-29T06:15:32;3.28;;;0.55;;
19903;SDS011;10114;50.970;4.962;2023-12-29T06:17:58;2.85;;;0.98;;
19903;SDS011;10114;50.970;4.962;2023-12-29T06:20:24;1.70;;;0.70;;
19903;SDS011;10114;50.970;4.962;2023-12-29T06:22:50;2.38;;;0.28;;
19903;SDS011;10114;50.970;4.962;2023-12-29T06:25:16;1.38;;;0.80;;
19903;SDS011;10114;50.970;4.962;2023-12-29T06:27:42;7.28;;;0.88;;
19903;SDS011;10114;50.970;4.962;2023-12-29T06:30:09;2.25;;;0.80;;
19903;SDS011;10114;50.970;4.962;2023-12-29T06:32:38;1.17;;;0.43;;
19903;SDS011;10114;50.970;4.962;2023-12-29T06:35:05;4.88;;;2.03;;
19903;SDS011;10114;50.970;4.962;2023-12-29T06:37:31;1.30;;;0.52;;
19903;SDS011;10114;50.970;4.962;2023-12-29T06:39:57;4.82;;;1.15;;
19903;SDS011;10114;50.970;4.962;2023-12-29T06:42:23;0.82;;;0.35;;
19903;SDS011;10114;50.970;4.962;2023-12-29T06:44:49;0.90;;;0.30;;
19903;SDS011;10114;50.970;4.962;2023-12-29T06:47:16;1.08;;;0.40;;
19903;SDS011;10114;50.970;4.962;2023-12-29T06:49:42;2.35;;;0.90;;
19903;SDS011;10114;50.970;4.962;2023-12-29T06:52:08;0.45;;;0.35;;
19903;SDS011;10114;50.970;4.962;2023-12-29T06:54:34;3.13;;;0.65;;
19903;SDS011;10114;50.970;4.962;2023-12-29T06:57:00;6.55;;;0.77;;
19903;SDS011;10114;50.970;4.962;2023-12-29T06:59:26;2.38;;;0.50;;
19903;SDS011;10114;50.970;4.962;2023-12-29T07:01:52;1.27;;;0.30;;
19903;SDS011;10114;50.970;4.962;2023-12-29T07:04:18;0.68;;;0.32;;
19903;SDS011;10114;50.970;4.962;2023-12-29T07:06:44;1.65;;;0.30;;
19903;SDS011;10114;50.970;4.962;2023-12-29T07:09:10;2.85;;;0.65;;
19903;SDS011;10114;50.970;4.962;2023-12-29T07:11:36;0.85;;;0.47;;
19903;SDS011;10114;50.970;4.962;2023-12-29T07:14:02;0.85;;;0.45;;
19903;SDS011;10114;50.970;4.962;2023-12-29T07:16:28;0.30;;;0.30;;
19903;SDS011;10114;50.970;4.962;2023-12-29T07:18:54;1.63;;;0.45;;
19903;SDS011;10114;50.970;4.962;2023-12-29T07:21:20;0.95;;;0.60;;
19903;SDS011;10114;50.970;4.962;2023-12-29T07:23:46;0.73;;;0.40;;
19903;SDS011;10114;50.970;4.962;2023-12-29T07:26:12;0.30;;;0.30;;
19903;SDS011;10114;50.970;4.962;2023-12-29T07:28:38;0.82;;;0.38;;
19903;SDS011;10114;50.970;4.962;2023-12-29T07:31:04;1.10;;;0.63;;
19903;SDS011;10114;50.970;4.962;2023-12-29T07:33:30;3.17;;;1.38;;
19903;SDS011;10114;50.970;4.962;2023-12-29T07:35:56;1.20;;;0.30;;
19903;SDS011;10114;50.970;4.962;2023-12-29T07:38:24;0.60;;;0.40;;
19903;SDS011;10114;50.970;4.962;2023-12-29T07:40:50;1.00;;;0.40;;
19903;SDS011;10114;50.970;4.962;2023-12-29T07:43:16;0.20;;;0.20;;
19903;SDS011;10114;50.970;4.962;2023-12-29T07:45:42;3.95;;;0.40;;
19903;SDS011;10114;50.970;4.962;2023-12-29T07:48:08;2.63;;;0.52;;
19903;SDS011;10114;50.970;4.962;2023-12-29T07:50:34;0.32;;;0.30;;
19903;SDS011;10114;50.970;4.962;2023-12-29T07:53:01;2.97;;;0.90;;
19903;SDS011;10114;50.970;4.962;2023-12-29T07:55:29;0.73;;;0.40;;
19903;SDS011;10114;50.970;4.962;2023-12-29T07:57:55;0.50;;;0.30;;
19903;SDS011;10114;50.970;4.962;2023-12-29T08:00:21;1.98;;;0.65;;
19903;SDS011;10114;50.970;4.962;2023-12-29T08:02:48;0.90;;;0.50;;
19903;SDS011;10114;50.970;4.962;2023-12-29T08:05:14;2.38;;;0.70;;
19903;SDS011;10114;50.970;4.962;2023-12-29T08:07:41;1.10;;;0.40;;
19903;SDS011;10114;50.970;4.962;2023-12-29T08:10:08;4.07;;;0.77;;
19903;SDS011;10114;50.970;4.962;2023-12-29T08:12:34;3.35;;;0.50;;
19903;SDS011;10114;50.970;4.962;2023-12-29T08:15:03;4.57;;;1.40;;
19903;SDS011;10114;50.970;4.962;2023-12-29T08:17:30;3.42;;;0.90;;
19903;SDS011;10114;50.970;4.962;2023-12-29T08:19:56;4.95;;;1.02;;
19903;SDS011;10114;50.970;4.962;2023-12-29T08:22:22;1.45;;;0.63;;
19903;SDS011;10114;50.970;4.962;2023-12-29T08:24:48;1.50;;;0.68;;
19903;SDS011;10114;50.970;4.962;2023-12-29T08:27:14;1.42;;;1.05;;
19903;SDS011;10114;50.970;4.962;2023-12-29T08:29:47;2.20;;;0.82;;
19903;SDS011;10114;50.970;4.962;2023-12-29T08:32:14;1.20;;;0.80;;
19903;SDS011;10114;50.970;4.962;2023-12-29T08:34:40;2.83;;;0.75;;
19903;SDS011;10114;50.970;4.962;2023-12-29T08:37:06;2.65;;;0.60;;
19903;SDS011;10114;50.970;4.962;2023-12-29T08:39:32;2.70;;;0.90;;
19903;SDS011;10114;50.970;4.962;2023-12-29T08:41:58;1.67;;;0.80;;
19903;SDS011;10114;50.970;4.962;2023-12-29T08:44:24;0.82;;;0.80;;
19903;SDS011;10114;50.970;4.962;2023-12-29T08:46:50;1.95;;;0.95;;
19903;SDS011;10114;50.970;4.962;2023-12-29T08:49:16;1.38;;;0.90;;
19903;SDS011;10114;50.970;4.962;2023-12-29T08:51:43;0.85;;;0.75;;
19903;SDS011;10114;50.970;4.962;2023-12-29T08:54:09;5.43;;;1.17;;
19903;SDS011;10114;50.970;4.962;2023-12-29T08:56:35;1.77;;;1.10;;
19903;SDS011;10114;50.970;4.962;2023-12-29T08:59:01;2.67;;;1.55;;
19903;SDS011;10114;50.970;4.962;2023-12-29T09:01:27;2.13;;;1.73;;
19903;SDS011;10114;50.970;4.962;2023-12-29T09:03:53;4.43;;;1.80;;
19903;SDS011;10114;50.970;4.962;2023-12-29T09:06:19;5.75;;;2.20;;
19903;SDS011;10114;50.970;4.962;2023-12-29T09:08:45;2.20;;;1.90;;
19903;SDS011;10114;50.970;4.962;2023-12-29T09:11:11;4.43;;;2.38;;
19903;SDS011;10114;50.970;4.962;2023-12-29T09:13:37;3.25;;;2.80;;
19903;SDS011;10114;50.970;4.962;2023-12-29T09:16:03;3.75;;;3.45;;
19903;SDS011;10114;50.970;4.962;2023-12-29T09:18:29;3.30;;;3.00;;
19903;SDS011;10114;50.970;4.962;2023-12-29T09:20:55;3.00;;;2.72;;
19903;SDS011;10114;50.970;4.962;2023-12-29T09:23:21;3.40;;;3.10;;
19903;SDS011;10114;50.970;4.962;2023-12-29T09:25:47;4.07;;;3.78;;
19903;SDS011;10114;50.970;4.962;2023-12-29T09:28:13;4.43;;;4.10;;
19903;SDS011;10114;50.970;4.962;2023-12-29T09:30:39;5.00;;;4.60;;
19903;SDS011;10114;50.970;4.962;2023-12-29T09:33:05;5.07;;;4.55;;
19903;SDS011;10114;50.970;4.962;2023-12-29T09:35:31;5.65;;;4.43;;
19903;SDS011;10114;50.970;4.962;2023-12-29T09:37:57;5.07;;;4.68;;
19903;SDS011;10114;50.970;4.962;2023-12-29T09:40:24;5.80;;;5.30;;
19903;SDS011;10114;50.970;4.962;2023-12-29T09:42:51;5.18;;;4.78;;
19903;SDS011;10114;50.970;4.962;2023-12-29T09:45:19;5.30;;;4.90;;
19903;SDS011;10114;50.970;4.962;2023-12-29T09:47:49;5.18;;;4.78;;
19903;SDS011;10114;50.970;4.962;2023-12-29T09:50:17;6.00;;;5.28;;
19903;SDS011;10114;50.970;4.962;2023-12-29T09:52:43;5.93;;;4.80;;
19903;SDS011;10114;50.970;4.962;2023-12-29T09:55:10;5.20;;;4.70;;
19903;SDS011;10114;50.970;4.962;2023-12-29T09:57:37;5.18;;;4.70;;
19903;SDS011;10114;50.970;4.962;2023-12-29T10:00:03;4.65;;;4.32;;
19903;SDS011;10114;50.970;4.962;2023-12-29T10:02:29;4.88;;;4.47;;
19903;SDS011;10114;50.970;4.962;2023-12-29T10:04:56;5.20;;;4.75;;
19903;SDS011;10114;50.970;4.962;2023-12-29T10:07:25;5.80;;;5.40;;
19903;SDS011;10114;50.970;4.962;2023-12-29T10:09:58;4.75;;;4.20;;
19903;SDS011;10114;50.970;4.962;2023-12-29T10:12:24;4.85;;;4.45;;
19903;SDS011;10114;50.970;4.962;2023-12-29T10:15:01;5.50;;;5.10;;
19903;SDS011;10114;50.970;4.962;2023-12-29T10:20:11;6.28;;;5.88;;
19903;SDS011;10114;50.970;4.962;2023-12-29T10:25:25;6.70;;;6.20;;
19903;SDS011;10114;50.970;4.962;2023-12-29T10:27:51;8.27;;;7.60;;
19903;SDS011;10114;50.970;4.962;2023-12-29T10:30:18;7.25;;;6.75;;
19903;SDS011;10114;50.970;4.962;2023-12-29T10:32:49;8.65;;;7.90;;
19903;SDS011;10114;50.970;4.962;2023-12-29T10:35:16;7.78;;;7.20;;
19903;SDS011;10114;50.970;4.962;2023-12-29T10:37:43;8.13;;;7.28;;
19903;SDS011;10114;50.970;4.962;2023-12-29T10:40:09;5.78;;;5.22;;
19903;SDS011;10114;50.970;4.962;2023-12-29T10:42:51;6.68;;;5.35;;
19903;SDS011;10114;50.970;4.962;2023-12-29T10:45:17;6.55;;;6.05;;
19903;SDS011;10114;50.970;4.962;2023-12-29T10:47:43;5.72;;;5.25;;
19903;SDS011;10114;50.970;4.962;2023-12-29T10:50:10;6.07;;;5.53;;
19903;SDS011;10114;50.970;4.962;2023-12-29T10:52:36;6.55;;;5.88;;
19903;SDS011;10114;50.970;4.962;2023-12-29T10:55:12;7.28;;;5.72;;
19903;SDS011;10114;50.970;4.962;2023-12-29T10:57:38;6.10;;;5.60;;
19903;SDS011;10114;50.970;4.962;2023-12-29T11:00:05;5.60;;;5.10;;
19903;SDS011;10114;50.970;4.962;2023-12-29T11:02:33;5.50;;;5.10;;
19903;SDS011;10114;50.970;4.962;2023-12-29T11:05:02;6.30;;;5.05;;
19903;SDS011;10114;50.970;4.962;2023-12-29T11:10:02;4.40;;;4.00;;
19903;SDS011;10114;50.970;4.962;2023-12-29T11:12:29;4.85;;;4.15;;
19903;SDS011;10114;50.970;4.962;2023-12-29T11:14:56;3.70;;;3.40;;
19903;SDS011;10114;50.970;4.962;2023-12-29T11:17:22;4.03;;;3.55;;
19903;SDS011;10114;50.970;4.962;2023-12-29T11:19:48;3.75;;;3.45;;
19903;SDS011;10114;50.970;4.962;2023-12-29T11:22:16;4.93;;;4.20;;
19903;SDS011;10114;50.970;4.962;2023-12-29T11:24:45;4.90;;;4.50;;
19903;SDS011;10114;50.970;4.962;2023-12-29T11:27:11;7.93;;;4.10;;
19903;SDS011;10114;50.970;4.962;2023-12-29T11:29:38;5.88;;;5.47;;
19903;SDS011;10114;50.970;4.962;2023-12-29T11:32:06;5.20;;;4.80;;
19903;SDS011;10114;50.970;4.962;2023-12-29T11:34:35;6.45;;;5.90;;
19903;SDS011;10114;50.970;4.962;2023-12-29T11:37:14;6.75;;;6.10;;
19903;SDS011;10114;50.970;4.962;2023-12-29T11:39:50;7.18;;;6.63;;
19903;SDS011;10114;50.970;4.962;2023-12-29T11:42:23;10.57;;;5.90;;
19903;SDS011;10114;50.970;4.962;2023-12-29T11:44:52;5.50;;;5.00;;
19903;SDS011;10114;50.970;4.962;2023-12-29T11:47:39;6.55;;;4.35;;
19903;SDS011;10114;50.970;4.962;2023-12-29T11:50:04;5.43;;;3.50;;
19903;SDS011;10114;50.970;4.962;2023-12-29T11:52:34;3.00;;;2.70;;
19903;SDS011;10114;50.970;4.962;2023-12-29T11:55:18;3.25;;;2.35;;
19903;SDS011;10114;50.970;4.962;2023-12-29T11:57:45;1.98;;;1.50;;
19903;SDS011;10114;50.970;4.962;2023-12-29T12:00:11;2.70;;;1.08;;
19903;SDS011;10114;50.970;4.962;2023-12-29T12:02:37;1.65;;;0.95;;
19903;SDS011;10114;50.970;4.962;2023-12-29T12:05:03;2.53;;;1.50;;
19903;SDS011;10114;50.970;4.962;2023-12-29T12:12:43;1.35;;;1.00;;
19903;SDS011;10114;50.970;4.962;2023-12-29T12:17:57;1.77;;;1.00;;
19903;SDS011;10114;50.970;4.962;2023-12-29T12:20:23;2.30;;;1.08;;
19903;SDS011;10114;50.970;4.962;2023-12-29T12:22:50;1.45;;;1.05;;
19903;SDS011;10114;50.970;4.962;2023-12-29T12:25:16;2.97;;;1.30;;
19903;SDS011;10114;50.970;4.962;2023-12-29T12:27:43;3.03;;;1.73;;
19903;SDS011;10114;50.970;4.962;2023-12-29T12:30:09;3.53;;;1.60;;
19903;SDS011;10114;50.970;4.962;2023-12-29T12:32:36;2.17;;;1.98;;
19903;SDS011;10114;50.970;4.962;2023-12-29T12:35:02;7.40;;;2.30;;
19903;SDS011;10114;50.970;4.962;2023-12-29T12:37:29;8.30;;;2.20;;
19903;SDS011;10114;50.970;4.962;2023-12-29T12:39:55;3.20;;;2.90;;
19903;SDS011;10114;50.970;4.962;2023-12-29T12:42:21;4.95;;;4.55;;
19903;SDS011;10114;50.970;4.962;2023-12-29T12:45:33;4.95;;;4.55;;
19903;SDS011;10114;50.970;4.962;2023-12-29T12:47:41;6.93;;;6.03;;
19903;SDS011;10114;50.970;4.962;2023-12-29T12:50:08;7.50;;;6.85;;
19903;SDS011;10114;50.970;4.962;2023-12-29T12:52:35;5.75;;;5.35;;
19903;SDS011;10114;50.970;4.962;2023-12-29T12:55:01;8.52;;;7.82;;
19903;SDS011;10114;50.970;4.962;2023-12-29T12:57:28;8.95;;;8.45;;
19903;SDS011;10114;50.970;4.962;2023-12-29T12:59:54;12.15;;;11.45;;
19903;SDS011;10114;50.970;4.962;2023-12-29T13:02:21;15.43;;;14.63;;
19903;SDS011;10114;50.970;4.962;2023-12-29T13:04:48;17.05;;;16.15;;
19903;SDS011;10114;50.970;4.962;2023-12-29T13:07:16;14.38;;;13.57;;
19903;SDS011;10114;50.970;4.962;2023-12-29T13:09:44;5.80;;;5.40;;
19903;SDS011;10114;50.970;4.962;2023-12-29T13:12:11;6.85;;;6.45;;
19903;SDS011;10114;50.970;4.962;2023-12-29T13:14:38;7.60;;;7.00;;
19903;SDS011;10114;50.970;4.962;2023-12-29T13:17:10;6.57;;;6.18;;
19903;SDS011;10114;50.970;4.962;2023-12-29T13:19:37;7.53;;;7.13;;
19903;SDS011;10114;50.970;4.962;2023-12-29T13:22:09;9.73;;;9.23;;
19903;SDS011;10114;50.970;4.962;2023-12-29T13:24:46;11.30;;;10.70;;
19903;SDS011;10114;50.970;4.962;2023-12-29T13:27:15;11.65;;;11.05;;
19903;SDS011;10114;50.970;4.962;2023-12-29T13:29:42;10.93;;;10.13;;
19903;SDS011;10114;50.970;4.962;2023-12-29T13:40:24;14.05;;;13.25;;
19903;SDS011;10114;50.970;4.962;2023-12-29T13:42:53;13.48;;;12.77;;
19903;SDS011;10114;50.970;4.962;2023-12-29T13:45:20;14.63;;;13.57;;
19903;SDS011;10114;50.970;4.962;2023-12-29T13:47:47;13.07;;;12.38;;
19903;SDS011;10114;50.970;4.962;2023-12-29T13:50:13;10.73;;;10.02;;
19903;SDS011;10114;50.970;4.962;2023-12-29T13:52:39;11.13;;;10.52;;
19903;SDS011;10114;50.970;4.962;2023-12-29T13:55:06;12.77;;;12.00;;
19903;SDS011;10114;50.970;4.962;2023-12-29T13:57:35;12.35;;;11.55;;
19903;SDS011;10114;50.970;4.962;2023-12-29T14:02:40;9.68;;;9.07;;
19903;SDS011;10114;50.970;4.962;2023-12-29T14:07:45;8.57;;;7.97;;
19903;SDS011;10114;50.970;4.962;2023-12-29T14:10:12;7.40;;;6.90;;
19903;SDS011;10114;50.970;4.962;2023-12-29T14:12:38;6.10;;;5.70;;
19903;SDS011;10114;50.970;4.962;2023-12-29T14:15:05;6.00;;;5.50;;
19903;SDS011;10114;50.970;4.962;2023-12-29T14:17:31;5.82;;;5.43;;
19903;SDS011;10114;50.970;4.962;2023-12-29T14:19:58;7.00;;;6.50;;
19903;SDS011;10114;50.970;4.962;2023-12-29T14:22:30;8.45;;;7.95;;
19903;SDS011;10114;50.970;4.962;2023-12-29T14:25:03;9.18;;;8.57;;
19903;SDS011;10114;50.970;4.962;2023-12-29T14:27:30;9.80;;;9.00;;
19903;SDS011;10114;50.970;4.962;2023-12-29T14:29:56;9.60;;;9.00;;
19903;SDS011;10114;50.970;4.962;2023-12-29T14:32:23;9.95;;;9.25;;
19903;SDS011;10114;50.970;4.962;2023-12-29T14:34:50;9.95;;;9.30;;
19903;SDS011;10114;50.970;4.962;2023-12-29T14:37:18;9.80;;;9.20;;
19903;SDS011;10114;50.970;4.962;2023-12-29T14:39:51;10.15;;;9.48;;
19903;SDS011;10114;50.970;4.962;2023-12-29T14:42:17;10.77;;;10.18;;
19903;SDS011;10114;50.970;4.962;2023-12-29T14:44:46;10.65;;;10.02;;
19903;SDS011;10114;50.970;4.962;2023-12-29T14:47:13;10.27;;;9.70;;
19903;SDS011;10114;50.970;4.962;2023-12-29T14:49:39;10.88;;;10.27;;
19903;SDS011;10114;50.970;4.962;2023-12-29T14:52:06;11.68;;;11.07;;
19903;SDS011;10114;50.970;4.962;2023-12-29T14:54:32;13.40;;;12.43;;
19903;SDS011;10114;50.970;4.962;2023-12-29T14:56:58;13.70;;;12.93;;
19903;SDS011;10114;50.970;4.962;2023-12-29T14:59:24;14.70;;;13.90;;
19903;SDS011;10114;50.970;4.962;2023-12-29T15:01:50;14.88;;;14.10;;
19903;SDS011;10114;50.970;4.962;2023-12-29T15:04:16;15.43;;;14.63;;
19903;SDS011;10114;50.970;4.962;2023-12-29T15:06:42;15.13;;;14.32;;
19903;SDS011;10114;50.970;4.962;2023-12-29T15:09:08;15.02;;;14.23;;
19903;SDS011;10114;50.970;4.962;2023-12-29T15:11:36;16.48;;;15.32;;
19903;SDS011;10114;50.970;4.962;2023-12-29T15:14:02;15.77;;;14.98;;